This is the latest recevied weather packets stored in our database for station/object OE2SWM. If no packets are shown the sender has not sent any weather packets the latest 10 day(s).
| Time | Temp. | Humidity | Pressure | Rain* | Wind** | Luminosity | Snow |
|---|---|---|---|---|---|---|---|
| 1778142600 | 13.89° C | 64% | 967 hPa | 0 mm | - | - | - |
| 1778142000 | 13.89° C | 65% | 967 hPa | 0 mm | - | - | - |
| 1778141400 | 13.89° C | 62% | 967 hPa | 0 mm | - | - | - |
| 1778140800 | 13.89° C | 63% | 967 hPa | 0 mm | - | - | - |
| 1778140200 | 13.89° C | 64% | 967 hPa | 0 mm | - | - | - |
| 1778139600 | 13.89° C | 65% | 967 hPa | 0 mm | - | - | - |
| 1778139000 | 12.78° C | 68% | 967 hPa | 0 mm | - | - | - |
| 1778138400 | 11.67° C | 69% | 967 hPa | 0 mm | - | - | - |
| 1778137800 | 11.67° C | 70% | 967 hPa | 0 mm | - | - | - |
| 1778137200 | 11.67° C | 71% | 967 hPa | 0 mm | - | - | - |
| 1778136600 | 11.67° C | 72% | 967 hPa | 0 mm | - | - | - |
| 1778136000 | 11.67° C | 74% | 967 hPa | 0 mm | - | - | - |
| 1778135400 | 11.67° C | 74% | 967 hPa | 0 mm | - | - | - |
| 1778134800 | 11.67° C | 75% | 967 hPa | 0 mm | - | - | - |
| 1778134200 | 11.67° C | 75% | 967 hPa | 0 mm | - | - | - |
| 1778133600 | 11.67° C | 76% | 967 hPa | 0 mm | - | - | - |
| 1778133000 | 11.67° C | 74% | 967 hPa | 0 mm | - | - | - |
| 1778132400 | 12.78° C | 69% | 967 hPa | 0 mm | - | - | - |
| 1778131800 | 16.67° C | 58% | 967 hPa | 0 mm | - | - | - |
| 1778131200 | 18.89° C | 56% | 967 hPa | 0 mm | - | - | - |
| 1778130600 | 13.89° C | 73% | 967 hPa | 0 mm | - | - | - |
| 1778130000 | 10.56° C | 80% | 967 hPa | 0 mm | - | - | - |
| 1778129400 | 8.89° C | 84% | 967 hPa | 0 mm | - | - | - |
| 1778128800 | 6.67° C | 89% | 967 hPa | 0 mm | - | - | - |
| 1778128200 | 6.67° C | 89% | 967 hPa | 0 mm | - | - | - |
* Rain latest hour (hover to see other rain measurements)
** Current wind speed in m/s (hover to see current wind gust speed)